createdAt,value
2018-01-02T00:00:44.160Z,7.05
2018-01-02T00:03:12.542Z,7.07
2018-01-02T00:05:40.883Z,7.04
2018-01-02T00:08:09.303Z,7.31
2018-01-02T00:10:37.648Z,7.33
2018-01-02T00:13:06.106Z,7.13
2018-01-02T00:15:34.487Z,6.93
2018-01-02T00:18:02.836Z,7.25
2018-01-02T00:20:31.210Z,6.92
2018-01-02T00:22:59.579Z,7.25
2018-01-02T00:25:27.931Z,6.56
2018-01-02T00:27:56.301Z,6.32
2018-01-02T00:30:24.639Z,6.80
2018-01-02T00:32:53.031Z,7.20
2018-01-02T00:35:21.378Z,7.02
2018-01-02T00:37:49.726Z,6.82
2018-01-02T00:40:18.071Z,6.97
2018-01-02T00:42:46.415Z,6.51
2018-01-02T00:45:14.800Z,6.34
2018-01-02T00:47:43.169Z,6.79
2018-01-02T00:50:11.540Z,6.98
2018-01-02T00:52:39.874Z,6.48
2018-01-02T00:55:08.223Z,6.83
2018-01-02T00:57:36.568Z,6.80
2018-01-02T01:00:04.956Z,6.48
2018-01-02T01:02:33.295Z,6.51
2018-01-02T01:05:01.664Z,7.22
2018-01-02T01:07:30.020Z,6.83
2018-01-02T01:09:58.368Z,6.94
2018-01-02T01:12:26.719Z,7.04
2018-01-02T01:14:55.069Z,6.55
2018-01-02T01:17:23.464Z,6.78
2018-01-02T01:19:51.833Z,6.79
2018-01-02T01:22:20.182Z,6.73
2018-01-02T01:24:48.546Z,6.16
2018-01-02T01:27:16.901Z,6.74
2018-01-02T01:29:45.286Z,6.64
2018-01-02T01:32:13.645Z,6.53
2018-01-02T01:34:41.995Z,6.35
2018-01-02T01:37:10.343Z,6.27
2018-01-02T01:39:38.702Z,6.23
2018-01-02T01:42:07.094Z,6.14
2018-01-02T01:44:35.487Z,6.46
2018-01-02T01:47:03.827Z,6.38
2018-01-02T01:49:32.198Z,6.74
2018-01-02T01:52:00.698Z,6.04
2018-01-02T01:54:29.085Z,5.76
2018-01-02T01:56:57.439Z,6.07
2018-01-02T01:59:25.781Z,5.92
2018-01-02T02:01:54.118Z,6.24
2018-01-02T02:04:22.475Z,6.04
2018-01-02T02:06:50.838Z,6.08
2018-01-02T02:09:19.193Z,6.90
2018-01-02T02:11:47.526Z,6.38
2018-01-02T02:14:15.886Z,6.45
2018-01-02T02:16:44.240Z,6.66
2018-01-02T02:19:12.619Z,7.19
2018-01-02T02:21:40.963Z,7.29
2018-01-02T02:24:09.316Z,6.75
2018-01-02T02:26:37.659Z,6.62
2018-01-02T02:29:06.011Z,6.24
2018-01-02T02:31:34.385Z,6.85
2018-01-02T02:34:02.746Z,6.36
2018-01-02T02:36:31.102Z,6.47
2018-01-02T02:38:59.438Z,7.34
2018-01-02T02:41:27.835Z,7.06
2018-01-02T02:43:56.191Z,6.68
2018-01-02T02:46:24.544Z,7.05
2018-01-02T02:48:52.909Z,7.03
2018-01-02T02:51:21.250Z,6.39
2018-01-02T02:53:49.612Z,7.38
2018-01-02T02:56:17.966Z,6.89
2018-01-02T02:58:46.432Z,7.46
2018-01-02T03:01:14.829Z,7.46
2018-01-02T03:03:43.174Z,7.65
2018-01-02T03:06:11.528Z,7.49
2018-01-02T03:08:39.888Z,7.20
2018-01-02T03:11:08.240Z,6.96
2018-01-02T03:13:36.639Z,6.82
2018-01-02T03:16:04.996Z,6.77
2018-01-02T03:18:33.352Z,6.53
2018-01-02T03:21:01.710Z,7.15
2018-01-02T03:23:30.075Z,7.09
2018-01-02T03:25:58.439Z,5.93
2018-01-02T03:28:26.782Z,7.40
2018-01-02T03:30:55.135Z,7.26
2018-01-02T03:33:23.486Z,7.57
2018-01-02T03:35:51.858Z,6.77
2018-01-02T03:38:20.211Z,7.01
2018-01-02T03:40:48.558Z,6.79
2018-01-02T03:43:16.922Z,7.21
2018-01-02T03:45:45.266Z,7.31
2018-01-02T03:48:13.644Z,7.35
2018-01-02T03:50:41.981Z,7.49
2018-01-02T03:53:10.337Z,7.34
2018-01-02T03:55:38.698Z,7.24
2018-01-02T03:58:07.044Z,7.32
2018-01-02T04:00:35.387Z,7.43
2018-01-02T04:03:03.769Z,7.96
2018-01-02T04:05:32.107Z,8.03
2018-01-02T04:08:00.460Z,8.13
2018-01-02T04:10:28.803Z,7.72
2018-01-02T04:12:57.155Z,7.69
2018-01-02T04:15:25.519Z,7.89
2018-01-02T04:17:53.909Z,8.25
2018-01-02T04:20:22.271Z,7.34
2018-01-02T04:22:50.658Z,7.41
2018-01-02T04:25:19.014Z,7.38
2018-01-02T04:27:47.385Z,7.46
2018-01-02T04:30:15.792Z,7.86
2018-01-02T04:32:44.151Z,7.88
2018-01-02T04:35:12.515Z,7.88
2018-01-02T04:37:40.876Z,7.66
2018-01-02T04:40:09.234Z,7.77
2018-01-02T04:42:37.594Z,7.58
2018-01-02T04:45:06.004Z,8.13
2018-01-02T04:47:34.350Z,7.35
2018-01-02T04:50:02.720Z,8.16
2018-01-02T04:52:31.099Z,7.86
2018-01-02T04:54:59.454Z,6.78
2018-01-02T04:57:27.908Z,7.99
2018-01-02T04:59:56.269Z,7.84
2018-01-02T05:02:24.637Z,6.49
2018-01-02T05:04:52.986Z,7.13
2018-01-02T05:07:21.345Z,8.01
2018-01-02T05:09:49.759Z,7.30
2018-01-02T05:12:18.114Z,7.31
2018-01-02T05:14:46.474Z,7.72
2018-01-02T05:17:14.831Z,7.28
2018-01-02T05:19:43.190Z,8.04
2018-01-02T05:22:11.591Z,8.09
2018-01-02T05:24:39.951Z,8.19
2018-01-02T05:27:08.293Z,7.85
2018-01-02T05:29:36.637Z,8.05
2018-01-02T05:32:04.979Z,7.34
2018-01-02T05:34:33.354Z,7.79
2018-01-02T05:37:01.720Z,8.16
2018-01-02T05:39:30.141Z,7.90
2018-01-02T05:41:58.517Z,7.70
2018-01-02T05:44:26.870Z,7.86
2018-01-02T05:46:55.272Z,7.66
2018-01-02T05:49:23.663Z,8.21
2018-01-02T05:51:52.010Z,8.13
2018-01-02T05:54:20.386Z,8.18
2018-01-02T05:56:48.734Z,6.91
2018-01-02T05:59:17.084Z,7.45
2018-01-02T06:01:45.465Z,7.24
2018-01-02T06:04:13.818Z,7.37
2018-01-02T06:06:42.183Z,7.72
2018-01-02T06:09:10.534Z,7.93
2018-01-02T06:11:39.023Z,7.48
2018-01-02T06:14:07.402Z,8.07
2018-01-02T06:16:35.751Z,7.63
2018-01-02T06:19:04.100Z,7.34
2018-01-02T06:21:32.439Z,7.47
2018-01-02T06:24:00.795Z,6.98
2018-01-02T06:26:29.150Z,7.12
2018-01-02T06:28:57.621Z,7.44
2018-01-02T06:31:25.982Z,7.52
2018-01-02T06:33:54.382Z,7.36
2018-01-02T06:36:22.821Z,7.94
2018-01-02T06:38:51.207Z,8.50
2018-01-02T06:41:19.558Z,7.74
2018-01-02T06:43:47.965Z,8.04
2018-01-02T06:46:16.288Z,8.10
2018-01-02T06:48:44.710Z,7.49
2018-01-02T06:51:13.379Z,7.10
2018-01-02T06:53:41.755Z,7.77
2018-01-02T06:56:10.130Z,7.89
2018-01-02T06:58:38.487Z,7.22
2018-01-02T07:01:06.847Z,7.95
2018-01-02T07:03:35.245Z,8.28
2018-01-02T07:06:03.631Z,7.95
2018-01-02T07:08:32.022Z,8.30
2018-01-02T07:11:00.398Z,7.42
2018-01-02T07:13:28.775Z,6.90
2018-01-02T07:15:57.160Z,7.09
2018-01-02T07:18:25.592Z,7.11
2018-01-02T07:20:53.975Z,7.65
2018-01-02T07:23:22.360Z,7.48
2018-01-02T07:25:50.801Z,7.80
2018-01-02T07:28:19.195Z,7.59
2018-01-02T07:30:47.556Z,8.24
2018-01-02T07:33:16.070Z,7.40
2018-01-02T07:35:44.427Z,8.37
2018-01-02T07:38:12.814Z,8.11
2018-01-02T07:40:41.216Z,7.42
2018-01-02T07:43:09.624Z,7.80
2018-01-02T07:45:38.137Z,7.90
2018-01-02T07:48:06.563Z,7.49
2018-01-02T07:50:34.947Z,8.17
2018-01-02T07:53:03.341Z,8.31
2018-01-02T07:55:31.747Z,8.19
2018-01-02T07:58:00.116Z,8.08
2018-01-02T08:00:28.565Z,7.87
2018-01-02T08:02:56.960Z,8.04
2018-01-02T08:05:25.341Z,8.57
2018-01-02T08:11:09.205Z,7.56
2018-01-02T08:13:37.624Z,7.21
2018-01-02T08:16:05.991Z,7.82
2018-01-02T08:18:34.440Z,8.14
2018-01-02T08:21:02.817Z,7.98
2018-01-02T08:23:31.182Z,7.99
2018-01-02T08:25:59.582Z,8.31
2018-01-02T08:28:27.990Z,8.71
2018-01-02T08:30:56.461Z,8.74
2018-01-02T08:33:24.852Z,8.15
2018-01-02T08:35:53.255Z,8.77
2018-01-02T08:38:21.750Z,8.48
2018-01-02T08:40:50.114Z,8.66
2018-01-02T08:43:18.526Z,8.47
2018-01-02T08:45:46.909Z,7.35
2018-01-02T08:48:15.276Z,7.63
2018-01-02T08:50:43.666Z,7.38
2018-01-02T08:53:12.295Z,7.86
2018-01-02T08:55:40.698Z,8.12
2018-01-02T08:58:09.118Z,8.02
2018-01-02T09:00:37.508Z,7.52
2018-01-02T09:03:05.899Z,7.95
2018-01-02T09:05:34.287Z,8.43
2018-01-02T09:08:02.855Z,8.73
2018-01-02T09:10:31.319Z,8.73
2018-01-02T09:12:59.702Z,8.70
2018-01-02T09:15:28.076Z,9.42
2018-01-02T09:17:56.552Z,8.98
2018-01-02T09:20:24.999Z,7.84
2018-01-02T09:22:53.363Z,8.60
2018-01-02T09:25:21.752Z,8.38
2018-01-02T09:27:50.199Z,8.50
2018-01-02T09:30:18.605Z,8.90
2018-01-02T09:32:47.100Z,9.34
2018-01-02T09:35:15.519Z,8.22
2018-01-02T09:37:43.890Z,8.11
2018-01-02T09:40:12.303Z,8.66
2018-01-02T09:42:40.655Z,8.32
2018-01-02T09:45:09.054Z,8.66
2018-01-02T09:47:37.441Z,8.44
2018-01-02T09:50:05.853Z,8.72
2018-01-02T09:52:35.259Z,8.86
2018-01-02T09:55:03.648Z,8.69
2018-01-02T09:57:32.148Z,8.44
2018-01-02T10:00:00.527Z,8.94
2018-01-02T10:02:29.858Z,9.41
2018-01-02T10:04:58.233Z,8.50
2018-01-02T10:07:26.588Z,7.78
2018-01-02T10:09:55.012Z,7.70
2018-01-02T10:12:23.393Z,7.84
2018-01-02T10:14:51.761Z,8.09
2018-01-02T10:17:20.178Z,8.02
2018-01-02T10:19:48.557Z,8.25
2018-01-02T10:22:17.023Z,8.16
2018-01-02T10:24:45.395Z,8.29
2018-01-02T10:27:13.766Z,8.21
2018-01-02T10:29:42.133Z,8.14
2018-01-02T10:32:10.555Z,8.19
2018-01-02T10:34:38.965Z,7.49
2018-01-02T10:37:07.351Z,7.96
2018-01-02T10:39:37.680Z,8.57
2018-01-02T10:42:06.187Z,8.70
2018-01-02T10:44:34.558Z,9.36
2018-01-02T10:47:02.964Z,8.90
2018-01-02T10:49:31.346Z,9.02
2018-01-02T10:51:59.693Z,8.63
2018-01-02T10:54:28.054Z,7.96
2018-01-02T10:56:56.418Z,8.29
2018-01-02T10:59:24.826Z,8.40
2018-01-02T11:01:54.073Z,8.91
2018-01-02T11:04:22.455Z,9.06
2018-01-02T11:11:03.251Z,7.34
2018-01-02T11:13:37.167Z,8.44
2018-01-02T11:16:05.540Z,7.73
2018-01-02T11:18:33.910Z,8.39
2018-01-02T11:21:02.395Z,8.23
2018-01-02T11:23:30.762Z,8.03
2018-01-02T11:25:59.201Z,7.81
2018-01-02T11:28:27.571Z,7.30
2018-01-02T11:30:55.911Z,8.18
2018-01-02T11:33:24.315Z,7.35
2018-01-02T11:35:52.746Z,7.48
2018-01-02T11:38:21.262Z,7.51
2018-01-02T11:40:49.689Z,7.12
2018-01-02T11:43:18.113Z,7.55
2018-01-02T11:45:46.465Z,7.97
2018-01-02T11:48:14.819Z,6.46
2018-01-02T11:50:43.247Z,7.55
2018-01-02T11:53:11.815Z,6.90
2018-01-02T11:55:40.226Z,7.46
2018-01-02T11:58:08.590Z,7.56
2018-01-02T12:00:36.980Z,6.74
2018-01-02T12:03:05.387Z,7.32
2018-01-02T12:05:33.765Z,7.68
2018-01-02T12:08:02.130Z,7.69
2018-01-02T12:10:30.537Z,7.66
2018-01-02T12:12:58.904Z,7.02
2018-01-02T12:15:27.362Z,8.12
2018-01-02T12:17:55.736Z,7.50
2018-01-02T12:20:24.106Z,8.01
2018-01-02T12:22:52.456Z,7.99
2018-01-02T12:25:20.811Z,7.48
2018-01-02T12:27:50.156Z,8.20
2018-01-02T12:30:18.560Z,9.79
2018-01-02T12:32:46.940Z,9.55
2018-01-02T12:35:15.315Z,9.46
2018-01-02T12:37:43.712Z,10.46
2018-01-02T12:40:12.153Z,10.73
2018-01-02T12:42:40.536Z,11.01
2018-01-02T12:45:08.897Z,10.70
2018-01-02T12:47:37.315Z,9.42
2018-01-02T12:50:05.683Z,9.85
2018-01-02T12:52:34.089Z,8.92
2018-01-02T12:55:03.453Z,8.34
2018-01-02T12:57:31.831Z,8.68
2018-01-02T13:00:00.211Z,9.16
2018-01-02T13:02:28.604Z,8.96
2018-01-02T13:04:57.001Z,8.05
2018-01-02T13:07:25.368Z,8.86
2018-01-02T13:09:53.748Z,8.85
2018-01-02T13:12:22.115Z,8.85
2018-01-02T13:14:50.494Z,9.36
2018-01-02T13:17:18.882Z,8.92
2018-01-02T13:19:47.245Z,8.63
2018-01-02T13:22:15.600Z,8.37
2018-01-02T13:24:43.947Z,7.51
2018-01-02T13:27:12.318Z,7.82
2018-01-02T13:29:40.748Z,8.08
2018-01-02T13:32:09.122Z,7.84
2018-01-02T13:34:37.567Z,7.64
2018-01-02T13:37:05.938Z,7.61
2018-01-02T13:39:34.295Z,7.69
2018-01-02T13:42:02.700Z,8.08
2018-01-02T13:44:31.078Z,7.54
2018-01-02T13:46:59.504Z,7.63
2018-01-02T13:49:27.909Z,7.75
2018-01-02T13:51:56.313Z,7.89
2018-01-02T13:54:24.658Z,8.18
2018-01-02T13:56:53.015Z,7.94
2018-01-02T13:59:21.499Z,7.76
2018-01-02T14:01:49.937Z,7.46
2018-01-02T14:04:18.331Z,7.28
2018-01-02T14:06:47.797Z,7.75
2018-01-02T14:09:16.142Z,8.21
2018-01-02T14:11:44.555Z,7.97
2018-01-02T14:14:12.961Z,7.40
2018-01-02T14:16:41.496Z,8.12
2018-01-02T14:19:09.880Z,8.26
2018-01-02T14:21:38.266Z,7.27
2018-01-02T14:24:06.697Z,7.77
2018-01-02T14:26:35.030Z,8.12
2018-01-02T14:29:03.457Z,7.88
2018-01-02T14:31:31.840Z,7.97
2018-01-02T14:34:00.220Z,7.45
2018-01-02T14:36:28.633Z,7.63
2018-01-02T14:38:57.015Z,8.17
2018-01-02T14:41:25.426Z,6.99
2018-01-02T14:43:53.794Z,7.98
2018-01-02T14:46:22.154Z,7.77
2018-01-02T14:48:50.564Z,7.54
2018-01-02T14:51:18.927Z,7.93
2018-01-02T14:53:47.415Z,7.35
2018-01-02T14:56:15.794Z,7.78
2018-01-02T14:58:44.347Z,7.45
2018-01-02T15:01:12.740Z,7.46
2018-01-02T15:03:41.129Z,7.66
2018-01-02T15:06:09.487Z,6.68
2018-01-02T15:08:37.881Z,7.12
2018-01-02T15:11:06.278Z,7.17
2018-01-02T15:13:34.688Z,6.94
2018-01-02T15:16:03.062Z,6.91
2018-01-02T15:18:31.492Z,6.64
2018-01-02T15:20:59.897Z,7.21
2018-01-02T15:23:28.424Z,7.01
2018-01-02T15:25:56.877Z,6.85
2018-01-02T15:28:25.236Z,7.30
2018-01-02T15:30:53.650Z,7.25
2018-01-02T15:33:22.030Z,7.14
2018-01-02T15:35:50.417Z,6.83
2018-01-02T15:38:18.828Z,7.17
2018-01-02T15:40:47.172Z,7.00
2018-01-02T15:43:15.655Z,7.00
2018-01-02T15:45:44.034Z,7.40
2018-01-02T15:48:12.452Z,6.90
2018-01-02T15:50:40.889Z,7.16
2018-01-02T15:53:09.253Z,6.83
2018-01-02T15:55:37.657Z,6.59
2018-01-02T15:58:06.049Z,7.12
2018-01-02T16:00:34.513Z,7.10
2018-01-02T16:03:03.079Z,7.11
2018-01-02T16:05:31.502Z,6.84
2018-01-02T16:07:59.864Z,7.16
2018-01-02T16:10:29.486Z,6.60
2018-01-02T16:12:58.819Z,6.80
2018-01-02T16:15:27.238Z,6.82
2018-01-02T16:17:55.762Z,6.41
2018-01-02T16:20:24.151Z,6.60
2018-01-02T16:22:52.537Z,6.34
2018-01-02T16:25:20.917Z,6.60
2018-01-02T16:27:49.360Z,6.40
2018-01-02T16:30:17.742Z,6.84
2018-01-02T16:32:46.168Z,6.66
2018-01-02T16:35:14.559Z,6.85
2018-01-02T16:37:42.929Z,6.61
2018-01-02T16:40:11.313Z,6.77
2018-01-02T16:42:39.709Z,6.10
2018-01-02T16:45:08.131Z,6.17
2018-01-02T16:47:36.512Z,6.86
2018-01-02T16:50:04.882Z,6.40
2018-01-02T16:52:33.260Z,6.36
2018-01-02T16:55:01.646Z,6.65
2018-01-02T16:57:30.155Z,6.36
2018-01-02T16:59:58.532Z,6.51
2018-01-02T17:02:26.976Z,6.25
2018-01-02T17:04:55.354Z,5.92
2018-01-02T17:07:23.745Z,5.77
2018-01-02T17:09:52.178Z,6.21
2018-01-02T17:12:20.673Z,6.25
2018-01-02T17:14:49.100Z,6.08
2018-01-02T17:17:17.481Z,6.22
2018-01-02T17:19:45.866Z,6.74
2018-01-02T17:22:14.261Z,6.66
2018-01-02T17:24:42.624Z,5.81
2018-01-02T17:27:11.106Z,6.56
2018-01-02T17:29:39.479Z,6.46
2018-01-02T17:32:07.883Z,6.45
2018-01-02T17:34:36.400Z,6.53
2018-01-02T17:37:04.835Z,6.80
2018-01-02T17:39:33.235Z,6.09
2018-01-02T17:42:01.643Z,5.97
2018-01-02T17:44:30.017Z,6.14
2018-01-02T17:46:58.508Z,6.27
2018-01-02T17:52:01.531Z,6.43
2018-01-02T17:54:29.996Z,6.66
2018-01-02T17:56:58.352Z,6.45
2018-01-02T17:59:26.703Z,6.26
2018-01-02T18:01:55.086Z,6.41
2018-01-02T18:04:23.714Z,6.33
2018-01-02T18:06:52.265Z,6.26
2018-01-02T18:09:20.644Z,6.50
2018-01-02T18:11:49.037Z,6.23
2018-01-02T18:14:17.440Z,6.28
2018-01-02T18:16:45.875Z,6.37
2018-01-02T18:19:14.429Z,6.14
2018-01-02T18:21:42.780Z,6.90
2018-01-02T18:24:11.157Z,6.25
2018-01-02T18:26:39.557Z,6.89
2018-01-02T18:29:07.974Z,6.62
2018-01-02T18:31:36.535Z,6.78
2018-01-02T18:34:04.956Z,6.88
2018-01-02T18:36:33.352Z,7.29
2018-01-02T18:39:01.721Z,7.10
2018-01-02T18:41:30.114Z,7.11
2018-01-02T18:43:58.543Z,6.77
2018-01-02T18:46:26.958Z,6.60
2018-01-02T18:48:55.327Z,6.90
2018-01-02T18:51:23.717Z,6.83
2018-01-02T18:53:52.130Z,6.78
2018-01-02T18:56:20.752Z,6.75
2018-01-02T18:58:49.167Z,6.99
2018-01-02T19:01:17.675Z,6.22
2018-01-02T19:03:46.096Z,6.61
2018-01-02T19:06:14.475Z,6.62
2018-01-02T19:08:42.937Z,6.61
2018-01-02T19:11:11.349Z,6.60
2018-01-02T19:13:39.781Z,6.74
2018-01-02T19:16:08.146Z,6.51
2018-01-02T19:18:36.515Z,6.60
2018-01-02T19:21:04.919Z,6.90
2018-01-02T19:23:33.292Z,6.68
2018-01-02T19:26:01.667Z,6.69
2018-01-02T19:28:30.072Z,6.62
2018-01-02T19:30:58.442Z,6.86
2018-01-02T19:33:26.851Z,6.79
2018-01-02T19:35:55.320Z,7.69
2018-01-02T19:38:23.724Z,7.46
2018-01-02T19:40:52.101Z,7.15
2018-01-02T19:43:20.506Z,7.27
2018-01-02T19:45:48.906Z,7.46
2018-01-02T19:48:17.353Z,6.79
2018-01-02T19:50:45.763Z,7.01
2018-01-02T19:53:14.143Z,6.57
2018-01-02T19:55:42.722Z,7.17
2018-01-02T19:58:11.130Z,7.50
2018-01-02T20:00:40.407Z,7.82
2018-01-02T20:03:09.072Z,7.41
2018-01-02T20:05:37.427Z,7.14
2018-01-02T20:08:05.801Z,6.76
2018-01-02T20:10:35.132Z,7.03
2018-01-02T20:13:03.565Z,6.78
2018-01-02T20:15:31.962Z,6.66
2018-01-02T20:18:00.390Z,6.61
2018-01-02T20:20:28.755Z,6.97
2018-01-02T20:22:57.148Z,7.01
2018-01-02T20:25:25.545Z,6.83
2018-01-02T20:27:53.938Z,6.66
2018-01-02T20:30:22.350Z,6.91
2018-01-02T20:32:50.740Z,6.80
2018-01-02T20:35:19.114Z,7.60
2018-01-02T20:37:47.650Z,6.97
2018-01-02T20:40:16.132Z,6.84
2018-01-02T20:42:44.512Z,6.59
2018-01-02T20:45:12.897Z,7.38
2018-01-02T20:47:41.259Z,7.73
2018-01-02T20:50:09.628Z,7.15
2018-01-02T20:52:38.016Z,6.93
2018-01-02T20:55:06.394Z,6.67
2018-01-02T20:57:34.777Z,6.77
2018-01-02T21:00:03.291Z,6.32
2018-01-02T21:02:31.667Z,6.93
2018-01-02T21:05:00.054Z,7.26
2018-01-02T21:07:28.416Z,7.34
2018-01-02T21:09:56.784Z,6.96
2018-01-02T21:12:25.277Z,7.17
2018-01-02T21:14:53.678Z,6.25
2018-01-02T21:17:22.073Z,6.30
2018-01-02T21:19:50.499Z,5.92
2018-01-02T21:22:18.881Z,5.75
2018-01-02T21:24:47.340Z,6.64
2018-01-02T21:27:15.689Z,6.23
2018-01-02T21:29:44.111Z,6.25
2018-01-02T21:32:12.523Z,6.14
2018-01-02T21:34:40.907Z,6.33
2018-01-02T21:37:09.449Z,6.08
2018-01-02T21:39:37.861Z,5.83
2018-01-02T21:42:06.240Z,6.98
2018-01-02T21:44:34.634Z,6.37
2018-01-02T21:47:02.993Z,6.77
2018-01-02T21:49:31.371Z,7.04
2018-01-02T21:51:59.787Z,6.49
2018-01-02T21:54:28.141Z,6.27
2018-01-02T21:56:56.511Z,6.67
2018-01-02T21:59:24.865Z,6.66
2018-01-02T22:01:53.285Z,6.26
2018-01-02T22:04:21.914Z,6.47
2018-01-02T22:06:50.282Z,6.38
2018-01-02T22:09:18.648Z,6.29
2018-01-02T22:11:47.042Z,6.62
2018-01-02T22:14:15.438Z,6.35
2018-01-02T22:16:43.803Z,6.32
2018-01-02T22:19:12.151Z,6.60
2018-01-02T22:21:40.522Z,6.87
2018-01-02T22:24:08.919Z,6.94
2018-01-02T22:26:38.289Z,7.10
2018-01-02T22:29:06.695Z,6.74
2018-01-02T22:31:35.048Z,6.27
2018-01-02T22:34:03.448Z,6.51
2018-01-02T22:36:31.923Z,7.22
2018-01-02T22:39:00.315Z,6.40
2018-01-02T22:41:28.653Z,6.70
2018-01-02T22:43:57.031Z,6.53
2018-01-02T22:46:25.401Z,6.56
2018-01-02T22:48:53.806Z,6.24
2018-01-02T22:51:22.337Z,6.44
2018-01-02T22:53:50.752Z,6.73
2018-01-02T22:56:19.128Z,7.01
2018-01-02T22:58:47.742Z,6.62
2018-01-02T23:01:16.208Z,6.35
2018-01-02T23:03:44.719Z,6.81
2018-01-02T23:06:13.182Z,6.38
2018-01-02T23:08:41.585Z,6.78
2018-01-02T23:11:09.972Z,6.66
2018-01-02T23:13:38.386Z,6.43
2018-01-02T23:16:06.760Z,6.55
2018-01-02T23:18:35.174Z,6.48
2018-01-02T23:21:03.524Z,6.43
2018-01-02T23:23:31.876Z,6.43
2018-01-02T23:26:01.190Z,6.49
2018-01-02T23:28:29.563Z,6.50
2018-01-02T23:30:57.937Z,6.89
2018-01-02T23:33:26.312Z,6.92
2018-01-02T23:35:54.660Z,6.86
2018-01-02T23:38:23.045Z,6.97
2018-01-02T23:40:51.431Z,7.55
2018-01-02T23:43:19.765Z,7.23
2018-01-02T23:45:48.110Z,6.88
2018-01-02T23:48:16.541Z,7.25
2018-01-02T23:50:45.080Z,7.14
2018-01-02T23:53:13.479Z,6.92
2018-01-02T23:55:41.832Z,6.81
2018-01-02T23:58:10.183Z,7.26
